Main page
METAR-TAF:

METAR-TAF

Airports :

Cluj International Airport

Cluj-Napoca, Romania

latitude: 46-47N, longitude: 023-34E, elevation: 315 m

Current weather observation

The report was made 19 minutes ago, at 22:30 UTC
Wind 3 kt from the South/Southwest, varying between Southeast and West
Temperature 9°C
Humidity 81%
Pressure 1006 hPa
Visibility 10 km or more
no clouds below 1500 m and no cumulonimbus

METAR: LRCL 242230Z 20003KT 140V260 CAVOK 09/06 Q1006

Time: 01:49 (22:49 UTC)

Forecast

The report was made 2 hours and 49 minutes ago, at 20:00 UTC
Forecast valid from 24 at 21 UTC to 25 at 06 UTC
Wind 4 kt from variable directions
Visibility 10 km or more
Broken clouds at a height of 4500 ft
Temporary
from 24 at 21 UTC to 24 at 23 UTC
Visibility: 5000 m
light rain
Temporary
from 24 at 23 UTC to 25 at 05 UTC
Visibility: 3000 m
Broken clouds at a height of 1500 ft
mist,

TAF: LRCL 242000Z 2421/2506 VRB04KT 9999 BKN045 TEMPO 2421/2423 5000 -RA TEMPO 2423/2505 3000 BR BKN015

Weather observations and forecasts of more than 4000 airports (METAR and TAF reports).

The available stations are represented by yellow and red dots on the map.

Hover mouse over dot to see the name of the station.

Then click to see weather observations and forecasts.

To change the map : click on the green buttons with a black cross to zoom in, on the green button with a dash to zoom out, or on the green arrows for adjacent maps.


METAR-TAF: